Alice Springs Airport
YBAS : now visible

Airfield :











YOU CAN JOIN US ON...

 
LOGIN :

Register | Disclaimer

   EN    FR    IT 

 









Legend :    VFR   Marginal VFR   IFR   Intensive IFR   Very Intensive IFR
Visi :
Ceiling :
>= 8 km
>= 3000ft
5 to 8 km
1000 to 3000 ft
1500m to 5 km
500 to 1000 ft
800 to 1500m
200 to 500 ft
< 800m
< 200 ft
Symbols :   Thunderstorms  Fog  Heavy snow  Heavy precipitations  Wind > 20 kt






- Airport Elevation : 1789 ft
- IATA code : ASP


YBAS - Alice Springs

CURRENT METAR :
  • 041500Z AUTO 17004KT 9999 // NCD 05/M03 Q1029

EXPIRED METARs :
  • 041430Z AUTO 14004KT 9999 // NCD 05/M03 Q1029 RF00.0/000.0
  • 041400Z AUTO 13005KT 9999 // NCD 06/M03 Q1029
  • 041330Z AUTO 15005KT 9999 // NCD 07/M02 Q1029 RF00.0/000.0
  • 041300Z AUTO 13004KT 9999 // NCD 07/M02 Q1029
  • 041230Z AUTO 15007KT 9999 // NCD 07/M03 Q1029 RF00.0/000.0

TAF TAF YBAS
Valid from the 04 at 12:00 until the 05 at 12:00 UTC


041102Z 0412/0512 14006KT CAVOK
FM041500 VRB03KT CAVOK
FM042300 12014KT CAVOK
YMMM FIR / Oceania



MET'MAP, your aeronautical weather chart ! - Copyright ORBIFLY December 2007 - Disclaimer

ORBIFLY MET'MAP TEAM :

Programming & Development : Alexandra Zaïnal
Concept & original design : Baudouin d'Aumeries
Assistance for programming : Marc-Olivier Méhu
Technical & hardware support : Manuel Goepfert

Contact : metmap@orbifly.com




SOURCES & CREDITS :

   NOAA       Earth
Advisory